createdAt,value
2019-04-26T00:00:00.359Z,99507.69
2019-04-26T00:02:41.419Z,99506.13
2019-04-26T00:05:12.907Z,99517.25
2019-04-26T00:07:44.519Z,99527.47
2019-04-26T00:10:32.931Z,99542.77
2019-04-26T00:13:22.500Z,99549.20
2019-04-26T00:16:16.763Z,99550.30
2019-04-26T00:18:48.201Z,99555.05
2019-04-26T00:21:19.469Z,99567.50
2019-04-26T00:23:51.043Z,99558.33
2019-04-26T00:26:22.647Z,99556.56
2019-04-26T00:28:53.867Z,99548.05
2019-04-26T00:31:25.126Z,99554.27
2019-04-26T00:33:56.407Z,99562.20
2019-04-26T00:36:27.705Z,99559.56
2019-04-26T00:38:59.075Z,99555.12
2019-04-26T00:41:30.791Z,99565.13
2019-04-26T00:44:02.812Z,99573.17
2019-04-26T00:46:36.585Z,99579.15
2019-04-26T00:49:10.693Z,99584.68
2019-04-26T00:51:42.843Z,99594.91
2019-04-26T00:54:15.431Z,99595.95
2019-04-26T00:56:47.273Z,99615.67
2019-04-26T00:59:20.441Z,99623.03
2019-04-26T01:01:56.519Z,99614.16
2019-04-26T01:04:27.789Z,99623.44
2019-04-26T01:06:59.948Z,99611.18
2019-04-26T01:09:31.193Z,99608.53
2019-04-26T01:12:02.475Z,99606.83
2019-04-26T01:14:33.725Z,99613.08
2019-04-26T01:17:05.382Z,99601.92
2019-04-26T01:19:39.661Z,99613.55
2019-04-26T01:22:18.284Z,99629.98
2019-04-26T01:24:54.346Z,99631.88
2019-04-26T01:27:29.560Z,99639.00
2019-04-26T01:30:05.948Z,99638.22
2019-04-26T01:32:42.226Z,99635.77
2019-04-26T01:35:13.712Z,99628.80
2019-04-26T01:37:47.881Z,99621.73
2019-04-26T01:40:22.022Z,99612.95
2019-04-26T01:43:08.352Z,99618.23
2019-04-26T01:45:48.548Z,99619.73
2019-04-26T01:48:47.070Z,99625.77
2019-04-26T01:51:28.756Z,99629.73
2019-04-26T01:54:00.153Z,99639.38
2019-04-26T01:56:36.477Z,99644.38
2019-04-26T01:59:12.366Z,99641.63
2019-04-26T02:02:01.920Z,99642.19
2019-04-26T02:04:36.040Z,99637.02
2019-04-26T02:07:07.731Z,99637.77
2019-04-26T02:09:39.051Z,99648.98
2019-04-26T02:12:10.465Z,99645.70
2019-04-26T02:14:42.355Z,99644.73
2019-04-26T02:17:13.618Z,99651.92
2019-04-26T02:19:44.906Z,99653.23
2019-04-26T02:22:32.052Z,99648.92
2019-04-26T02:25:03.549Z,99654.50
2019-04-26T02:27:35.121Z,99653.45
2019-04-26T02:30:08.388Z,99655.35
2019-04-26T02:32:40.417Z,99665.42
2019-04-26T02:35:12.468Z,99658.57
2019-04-26T02:37:43.953Z,99649.50
2019-04-26T02:40:18.881Z,99643.24
2019-04-26T02:42:50.980Z,99656.67
2019-04-26T02:46:17.986Z,99664.22
2019-04-26T02:49:33.037Z,99661.56
2019-04-26T02:52:31.264Z,99665.24
2019-04-26T02:55:16.425Z,99662.03
2019-04-26T02:57:54.940Z,99653.75
2019-04-26T03:00:26.208Z,99638.76
2019-04-26T03:03:08.330Z,99634.86
2019-04-26T03:05:43.395Z,99638.19
2019-04-26T03:08:20.274Z,99631.41
2019-04-26T03:11:22.181Z,99630.73
2019-04-26T03:14:16.102Z,99640.08
2019-04-26T03:17:08.744Z,99643.48
2019-04-26T03:19:56.968Z,99653.76
2019-04-26T03:23:03.476Z,99667.93
2019-04-26T03:25:59.122Z,99664.53
2019-04-26T03:29:11.536Z,99675.28
2019-04-26T03:31:55.540Z,99693.77
2019-04-26T03:34:54.502Z,99696.78
2019-04-26T03:38:21.059Z,99691.40
2019-04-26T03:41:24.350Z,99686.32
2019-04-26T03:44:20.873Z,99688.96
2019-04-26T03:47:06.624Z,99696.88
2019-04-26T03:50:17.426Z,99696.59
2019-04-26T03:53:29.900Z,99695.45
2019-04-26T03:56:51.735Z,99680.16
2019-04-26T03:59:53.243Z,99660.56
2019-04-26T04:02:49.246Z,99659.81
2019-04-26T04:05:33.819Z,99671.59
2019-04-26T04:08:09.899Z,99684.02
2019-04-26T04:10:49.555Z,99701.00
2019-04-26T04:13:51.159Z,99704.37
2019-04-26T04:16:53.772Z,99710.98
2019-04-26T04:20:22.667Z,99695.58
2019-04-26T04:23:16.971Z,99697.05
2019-04-26T04:25:52.498Z,99713.91
2019-04-26T04:28:56.631Z,99717.52
2019-04-26T04:31:36.719Z,99730.95
2019-04-26T04:34:23.100Z,99727.05
2019-04-26T04:36:59.047Z,99732.47
2019-04-26T04:40:03.619Z,99737.88
2019-04-26T04:43:08.023Z,99737.92
2019-04-26T04:46:32.758Z,99733.66
2019-04-26T04:49:46.540Z,99727.95
2019-04-26T04:52:50.076Z,99732.67
2019-04-26T04:55:55.393Z,99743.18
2019-04-26T04:58:38.521Z,99738.60
2019-04-26T05:02:01.962Z,99739.06
2019-04-26T05:05:17.896Z,99740.80
2019-04-26T05:08:27.412Z,99728.69
2019-04-26T05:11:19.652Z,99731.94
2019-04-26T05:14:13.574Z,99741.27
2019-04-26T05:17:16.643Z,99731.13
2019-04-26T05:20:28.447Z,99732.41
2019-04-26T05:23:48.926Z,99744.80
2019-04-26T05:27:08.209Z,99767.23
2019-04-26T05:30:35.986Z,99758.05
2019-04-26T05:33:31.948Z,99755.86
2019-04-26T05:37:37.266Z,99759.77
2019-04-26T05:40:53.455Z,99756.87
2019-04-26T05:44:01.029Z,99779.84
2019-04-26T05:47:30.054Z,99767.12
2019-04-26T05:51:26.208Z,99758.51
2019-04-26T05:55:18.407Z,99753.38
2019-04-26T05:58:34.787Z,99758.86
2019-04-26T06:02:24.518Z,99768.25
2019-04-26T06:05:26.697Z,99782.98
2019-04-26T06:09:11.641Z,99787.75
2019-04-26T06:11:58.776Z,99794.24
2019-04-26T06:15:07.517Z,99809.16
2019-04-26T06:18:46.594Z,99795.97
2019-04-26T06:21:36.129Z,99792.25
2019-04-26T06:24:39.412Z,99790.34
2019-04-26T06:28:10.527Z,99797.66
2019-04-26T06:31:16.528Z,99802.53
2019-04-26T06:34:15.131Z,99789.23
2019-04-26T06:37:16.559Z,99782.69
2019-04-26T06:40:04.449Z,99780.41
2019-04-26T06:43:37.355Z,99778.98
2019-04-26T06:47:06.606Z,99782.08
2019-04-26T06:50:33.399Z,99802.16
2019-04-26T06:53:23.027Z,99814.03
2019-04-26T06:56:18.217Z,99826.50
2019-04-26T06:59:36.475Z,99827.42
2019-04-26T07:02:43.549Z,99840.36
2019-04-26T07:05:27.013Z,99858.94
2019-04-26T07:08:41.153Z,99860.53
2019-04-26T07:12:33.507Z,99858.69
2019-04-26T07:16:16.058Z,99845.49
2019-04-26T07:19:15.265Z,99848.94
2019-04-26T07:22:44.722Z,99852.65
2019-04-26T07:25:56.442Z,99842.14
2019-04-26T07:29:41.003Z,99848.48
2019-04-26T07:32:25.130Z,99851.47
2019-04-26T07:35:39.736Z,99852.48
2019-04-26T07:39:19.664Z,99852.07
2019-04-26T07:42:50.523Z,99849.95
2019-04-26T07:45:54.096Z,99855.94
2019-04-26T07:49:25.410Z,99857.48
2019-04-26T07:52:46.179Z,99868.11
2019-04-26T07:55:53.483Z,99874.89
2019-04-26T07:59:15.111Z,99890.02
2019-04-26T08:02:20.732Z,99908.25
2019-04-26T08:05:09.412Z,99906.38
2019-04-26T08:07:47.632Z,99916.61
2019-04-26T08:10:23.372Z,99913.20
2019-04-26T08:13:10.282Z,99919.91
2019-04-26T08:16:12.969Z,99921.29
2019-04-26T08:18:53.433Z,99922.28
2019-04-26T08:21:42.497Z,99925.55
2019-04-26T08:24:24.448Z,99924.44
2019-04-26T08:27:22.789Z,99935.08
2019-04-26T08:29:50.891Z,99919.28
2019-04-26T08:32:28.146Z,99919.94
2019-04-26T08:35:21.626Z,99928.86
2019-04-26T08:37:56.104Z,99927.14
2019-04-26T08:40:31.392Z,99933.18
2019-04-26T08:43:38.693Z,99933.13
2019-04-26T08:46:32.237Z,99943.91
2019-04-26T08:49:23.982Z,99929.74
2019-04-26T08:51:57.873Z,99926.38
2019-04-26T08:54:35.136Z,99928.68
2019-04-26T08:57:11.230Z,99929.98
2019-04-26T08:59:48.983Z,99934.20
2019-04-26T09:02:44.498Z,99933.13
2019-04-26T09:05:40.540Z,99945.50
2019-04-26T09:08:15.892Z,99949.23
2019-04-26T09:10:51.564Z,99955.80
2019-04-26T09:13:28.101Z,99944.80
2019-04-26T09:16:12.476Z,99948.50
2019-04-26T09:18:48.428Z,99945.81
2019-04-26T09:21:19.401Z,99958.80
2019-04-26T09:24:15.582Z,99968.28
2019-04-26T09:27:05.777Z,99972.61
2019-04-26T09:30:06.273Z,99974.69
2019-04-26T09:32:42.836Z,99980.05
2019-04-26T09:35:15.242Z,99976.12
2019-04-26T09:37:47.548Z,99976.91
2019-04-26T09:40:22.519Z,99972.24
2019-04-26T09:43:18.675Z,99960.39
2019-04-26T09:46:07.336Z,99962.00
2019-04-26T09:48:47.412Z,99968.19
2019-04-26T09:51:18.929Z,99953.30
2019-04-26T09:53:50.261Z,99949.97
2019-04-26T09:56:21.560Z,99952.05
2019-04-26T09:58:52.872Z,99952.63
2019-04-26T10:01:25.979Z,99949.51
2019-04-26T10:03:57.412Z,99959.16
2019-04-26T10:06:29.762Z,99962.63
2019-04-26T10:09:01.769Z,99969.73
2019-04-26T10:11:39.510Z,99963.68
2019-04-26T10:14:14.775Z,99966.23
2019-04-26T10:16:58.977Z,99963.48
2019-04-26T10:20:07.381Z,99977.38
2019-04-26T10:22:38.603Z,99978.11
2019-04-26T10:25:16.768Z,99984.18
2019-04-26T10:27:43.740Z,99982.77
2019-04-26T10:30:16.952Z,99972.55
2019-04-26T10:32:48.159Z,99978.52
2019-04-26T10:35:21.708Z,99985.72
2019-04-26T10:37:52.686Z,99988.89
2019-04-26T10:40:34.984Z,99993.25
2019-04-26T10:42:56.933Z,100004.52
2019-04-26T10:45:29.543Z,99996.16
2019-04-26T10:48:00.772Z,99993.34
2019-04-26T10:50:33.102Z,99993.83
2019-04-26T10:53:15.368Z,99999.59
2019-04-26T10:56:03.082Z,99993.55
2019-04-26T10:58:47.907Z,99993.27
2019-04-26T11:01:19.684Z,99993.55
2019-04-26T11:03:50.938Z,99998.64
2019-04-26T11:06:24.050Z,99989.95
2019-04-26T11:08:55.341Z,99993.72
2019-04-26T11:11:26.617Z,99983.81
2019-04-26T11:13:57.994Z,99985.23
2019-04-26T11:16:29.268Z,99980.31
2019-04-26T11:19:01.120Z,99977.77
2019-04-26T11:21:33.483Z,99975.30
2019-04-26T11:24:04.763Z,99974.73
2019-04-26T11:26:36.312Z,99972.03
2019-04-26T11:29:07.637Z,99971.56
2019-04-26T11:31:38.917Z,99977.58
2019-04-26T11:34:10.210Z,99971.81
2019-04-26T11:36:42.886Z,99966.29
2019-04-26T11:39:16.187Z,99964.91
2019-04-26T11:41:47.544Z,99972.66
2019-04-26T11:44:18.840Z,99974.49
2019-04-26T11:46:50.130Z,99980.95
2019-04-26T11:49:21.386Z,99970.59
2019-04-26T11:51:52.692Z,99972.39
2019-04-26T11:54:23.974Z,99969.69
2019-04-26T11:56:55.296Z,99970.27
2019-04-26T11:59:27.006Z,99977.79
2019-04-26T12:01:59.624Z,99986.54
2019-04-26T12:05:04.874Z,99991.18
2019-04-26T12:07:40.189Z,99995.59
2019-04-26T12:10:11.888Z,99994.20
2019-04-26T12:12:46.487Z,99990.84
2019-04-26T12:15:29.491Z,99985.78
2019-04-26T12:17:58.469Z,99985.23
2019-04-26T12:20:22.435Z,99977.33
2019-04-26T12:22:55.242Z,99984.96
2019-04-26T12:25:26.529Z,99972.44
2019-04-26T12:28:01.611Z,99972.12
2019-04-26T12:30:30.888Z,99974.84
2019-04-26T12:33:02.253Z,99967.39
2019-04-26T12:35:33.552Z,99983.95
2019-04-26T12:38:05.027Z,99972.55
2019-04-26T12:40:36.349Z,99970.00
2019-04-26T12:43:07.691Z,99974.67
2019-04-26T12:46:00.981Z,99974.64
2019-04-26T12:48:32.354Z,99970.16
2019-04-26T12:51:03.646Z,99969.98
2019-04-26T12:53:34.958Z,99970.45
2019-04-26T12:56:06.268Z,99960.16
2019-04-26T12:58:37.619Z,99972.05
2019-04-26T13:01:12.271Z,99961.95
2019-04-26T13:03:45.718Z,99967.87
2019-04-26T13:06:16.985Z,99974.59
2019-04-26T13:08:51.397Z,99978.41
2019-04-26T13:11:48.930Z,99978.36
2019-04-26T13:14:48.540Z,99984.94
2019-04-26T13:17:22.828Z,99977.41
2019-04-26T13:19:55.427Z,99980.43
2019-04-26T13:22:27.043Z,99981.25
2019-04-26T13:24:58.358Z,99992.17
2019-04-26T13:27:29.652Z,99988.98
2019-04-26T13:30:02.563Z,100001.20
2019-04-26T13:32:34.199Z,99991.08
2019-04-26T13:35:07.288Z,99989.10
2019-04-26T13:37:38.614Z,99994.02
2019-04-26T13:40:09.904Z,99996.56
2019-04-26T13:42:41.236Z,100003.66
2019-04-26T13:45:29.168Z,100001.01
2019-04-26T13:48:19.339Z,99998.50
2019-04-26T13:50:57.278Z,100009.33
2019-04-26T13:53:28.427Z,100007.27
2019-04-26T13:56:01.946Z,100008.43
2019-04-26T13:58:32.753Z,100006.59
2019-04-26T14:01:05.091Z,100009.78
2019-04-26T14:03:36.417Z,100010.37
2019-04-26T14:06:07.738Z,100020.47
2019-04-26T14:08:38.969Z,100015.31
2019-04-26T14:11:10.262Z,100022.77
2019-04-26T14:13:41.584Z,100011.44
2019-04-26T14:16:12.859Z,100015.42
2019-04-26T14:18:44.100Z,100018.06
2019-04-26T14:21:15.483Z,100019.00
2019-04-26T14:24:04.702Z,100015.09
2019-04-26T14:26:39.957Z,100009.56
2019-04-26T14:29:11.302Z,100009.67
2019-04-26T14:31:42.549Z,100006.58
2019-04-26T14:34:13.930Z,100001.25
2019-04-26T14:36:45.233Z,100007.63
2019-04-26T14:39:19.593Z,100009.67
2019-04-26T14:41:52.768Z,100018.98
2019-04-26T14:44:22.794Z,100010.66
2019-04-26T14:46:56.759Z,100008.71
2019-04-26T14:49:38.576Z,100009.56
2019-04-26T14:52:00.235Z,100006.47
2019-04-26T14:54:31.539Z,100004.55
2019-04-26T14:57:07.764Z,99996.53
2019-04-26T15:00:06.603Z,100007.20
2019-04-26T15:03:08.749Z,100003.67
2019-04-26T15:06:20.532Z,100002.84
2019-04-26T15:08:50.298Z,99993.01
2019-04-26T15:11:22.960Z,99993.50
2019-04-26T15:13:54.335Z,99989.73
2019-04-26T15:16:25.631Z,99990.73
2019-04-26T15:18:56.924Z,99985.27
2019-04-26T15:21:31.749Z,99990.80
2019-04-26T15:24:02.881Z,99996.38
2019-04-26T15:26:34.258Z,99996.83
2019-04-26T15:29:05.649Z,100009.17
2019-04-26T15:31:36.962Z,100002.41
2019-04-26T15:34:08.260Z,99995.25
2019-04-26T15:36:39.525Z,99995.08
2019-04-26T15:39:23.078Z,99993.06
2019-04-26T15:42:17.657Z,99984.23
2019-04-26T15:45:03.418Z,99980.63
2019-04-26T15:47:52.491Z,99976.23
2019-04-26T15:50:28.679Z,99975.92
2019-04-26T15:53:00.004Z,99980.97
2019-04-26T15:55:33.810Z,99979.55
2019-04-26T15:58:08.369Z,99976.39
2019-04-26T16:00:37.578Z,99977.09
2019-04-26T16:03:08.931Z,99982.06
2019-04-26T16:05:40.319Z,99993.43
2019-04-26T16:08:13.077Z,99987.72
2019-04-26T16:10:44.525Z,99990.22
2019-04-26T16:13:20.708Z,99989.41
2019-04-26T16:15:49.730Z,99988.23
2019-04-26T16:18:22.406Z,99984.50
2019-04-26T16:20:53.786Z,99986.66
2019-04-26T16:23:38.140Z,99984.88
2019-04-26T16:25:58.169Z,99989.61
2019-04-26T16:28:42.363Z,99986.84
2019-04-26T16:31:19.559Z,99990.02
2019-04-26T16:33:52.975Z,99990.16
2019-04-26T16:36:24.436Z,99991.87
2019-04-26T16:38:57.899Z,99995.89
2019-04-26T16:41:33.885Z,99993.36
2019-04-26T16:44:02.794Z,99993.03
2019-04-26T16:46:34.396Z,99995.56
2019-04-26T16:49:09.225Z,99999.58
2019-04-26T16:51:38.953Z,99993.87
2019-04-26T16:54:16.319Z,99994.34
2019-04-26T16:56:43.937Z,99999.81
2019-04-26T17:00:35.776Z,100004.89
2019-04-26T17:01:48.556Z,100005.58
2019-04-26T17:04:24.822Z,100011.11
2019-04-26T17:06:53.207Z,100012.16
2019-04-26T17:09:29.754Z,100012.22
2019-04-26T17:11:57.801Z,100016.68
2019-04-26T17:14:33.943Z,100016.47
2019-04-26T17:17:07.476Z,100011.86
2019-04-26T17:19:37.606Z,100013.02
2019-04-26T17:22:42.559Z,100016.54
2019-04-26T17:25:24.238Z,100015.08
2019-04-26T17:27:52.894Z,100010.99
2019-04-26T17:30:26.339Z,100010.47
2019-04-26T17:32:57.839Z,100012.52
2019-04-26T17:35:32.811Z,100014.32
2019-04-26T17:38:05.194Z,100013.13
2019-04-26T17:40:38.031Z,100015.84
2019-04-26T17:43:10.787Z,100011.99
2019-04-26T17:45:44.226Z,100015.48
2019-04-26T17:48:15.783Z,100033.14
2019-04-26T17:50:47.502Z,100045.28
2019-04-26T17:53:28.523Z,100037.53
2019-04-26T17:55:54.743Z,100024.14
2019-04-26T17:58:31.035Z,100040.44
2019-04-26T18:01:01.097Z,100045.52
2019-04-26T18:03:32.641Z,100039.44
2019-04-26T18:06:04.505Z,100045.03
2019-04-26T18:08:45.254Z,100034.71
2019-04-26T18:11:18.463Z,100039.53
2019-04-26T18:13:42.752Z,100033.28
2019-04-26T18:16:17.791Z,100031.56
2019-04-26T18:19:26.320Z,100034.21
2019-04-26T18:22:19.231Z,100030.18
2019-04-26T18:24:50.884Z,100037.78
2019-04-26T18:27:23.971Z,100032.95
2019-04-26T18:29:59.869Z,100036.74
2019-04-26T18:32:28.906Z,100033.45
2019-04-26T18:35:00.546Z,100023.61
2019-04-26T18:37:36.483Z,100027.12
2019-04-26T18:40:05.768Z,100032.80
2019-04-26T18:42:41.472Z,100028.44
2019-04-26T18:45:10.870Z,100036.77
2019-04-26T18:47:43.703Z,100038.83
2019-04-26T18:50:18.639Z,100044.23
2019-04-26T18:52:59.837Z,100047.40
2019-04-26T18:55:34.329Z,100055.69
2019-04-26T18:58:05.569Z,100059.84
2019-04-26T19:00:39.472Z,100057.13
2019-04-26T19:03:13.551Z,100065.80
2019-04-26T19:05:44.418Z,100062.59
2019-04-26T19:08:16.127Z,100061.23
2019-04-26T19:10:58.306Z,100065.56
2019-04-26T19:13:36.532Z,100070.31
2019-04-26T19:16:18.195Z,100066.87
2019-04-26T19:18:54.806Z,100071.41
2019-04-26T19:22:01.500Z,100075.36
2019-04-26T19:24:33.652Z,100077.05
2019-04-26T19:27:05.782Z,100072.20
2019-04-26T19:29:37.446Z,100086.50
2019-04-26T19:32:09.153Z,100077.50
2019-04-26T19:34:42.090Z,100078.55
2019-04-26T19:37:13.849Z,100078.31
2019-04-26T19:39:45.515Z,100085.47
2019-04-26T19:42:17.123Z,100088.20
2019-04-26T19:44:49.392Z,100088.09
2019-04-26T19:47:47.041Z,100084.73
2019-04-26T19:50:32.174Z,100092.20
2019-04-26T19:53:28.520Z,100086.39
2019-04-26T19:56:09.819Z,100093.33
2019-04-26T19:58:42.160Z,100093.82
2019-04-26T20:01:16.620Z,100092.28
2019-04-26T20:03:51.472Z,100089.03
2019-04-26T20:06:20.610Z,100091.81
2019-04-26T20:08:52.239Z,100082.17
2019-04-26T20:11:23.939Z,100087.94
2019-04-26T20:13:55.622Z,100090.36
2019-04-26T20:16:27.350Z,100089.02
2019-04-26T20:18:59.081Z,100088.73
2019-04-26T20:21:32.638Z,100087.70
2019-04-26T20:24:04.083Z,100082.66
2019-04-26T20:26:37.418Z,100083.70
2019-04-26T20:29:10.168Z,100084.23
2019-04-26T20:31:51.956Z,100083.06
2019-04-26T20:34:23.457Z,100075.85
2019-04-26T20:36:55.071Z,100077.31
2019-04-26T20:39:26.711Z,100072.05
2019-04-26T20:42:01.882Z,100073.59
2019-04-26T20:44:47.576Z,100071.37
2019-04-26T20:47:07.683Z,100065.47
2019-04-26T20:49:47.485Z,100071.60
2019-04-26T20:52:11.326Z,100060.17
2019-04-26T20:54:46.598Z,100061.11
2019-04-26T20:57:19.638Z,100067.56
2019-04-26T20:59:52.678Z,100068.46
2019-04-26T21:02:24.869Z,100071.19
2019-04-26T21:04:56.608Z,100077.62
2019-04-26T21:07:28.183Z,100076.57
2019-04-26T21:09:59.712Z,100072.99
2019-04-26T21:12:31.448Z,100078.42
2019-04-26T21:15:02.922Z,100075.16
2019-04-26T21:17:34.418Z,100069.59
2019-04-26T21:20:06.014Z,100062.69
2019-04-26T21:22:37.335Z,100062.92
2019-04-26T21:25:14.822Z,100056.09
2019-04-26T21:27:55.615Z,100053.69
2019-04-26T21:30:41.793Z,100050.52
2019-04-26T21:33:38.767Z,100052.29
2019-04-26T21:36:24.350Z,100057.06
2019-04-26T21:39:20.379Z,100051.25
2019-04-26T21:41:53.204Z,100059.47
2019-04-26T21:44:24.767Z,100064.91
2019-04-26T21:46:58.860Z,100065.55
2019-04-26T21:49:29.229Z,100062.52
2019-04-26T21:52:00.599Z,100076.01
2019-04-26T21:54:33.014Z,100075.00
2019-04-26T21:57:04.404Z,100074.52
2019-04-26T21:59:40.844Z,100068.47
2019-04-26T22:02:09.202Z,100064.23
2019-04-26T22:04:40.574Z,100068.41
2019-04-26T22:07:11.888Z,100061.64
2019-04-26T22:10:05.306Z,100060.64
2019-04-26T22:12:35.121Z,100055.60
2019-04-26T22:15:37.310Z,100053.19
2019-04-26T22:18:16.471Z,100054.05
2019-04-26T22:21:00.520Z,100058.09
2019-04-26T22:23:51.734Z,100065.36
2019-04-26T22:26:23.886Z,100076.44
2019-04-26T22:28:55.164Z,100090.27
2019-04-26T22:31:26.582Z,100083.22
2019-04-26T22:34:01.374Z,100079.12
2019-04-26T22:36:31.846Z,100082.38
2019-04-26T22:39:04.918Z,100085.98
2019-04-26T22:41:36.214Z,100086.68
2019-04-26T22:44:13.879Z,100088.83
2019-04-26T22:46:58.809Z,100084.01
2019-04-26T22:49:27.967Z,100078.51
2019-04-26T22:51:59.260Z,100079.42
2019-04-26T22:54:30.547Z,100077.09
2019-04-26T22:57:03.803Z,100072.55
2019-04-26T22:59:38.098Z,100066.64
2019-04-26T23:02:10.327Z,100070.74
2019-04-26T23:04:41.718Z,100065.78
2019-04-26T23:07:13.657Z,100071.23
2019-04-26T23:09:45.774Z,100058.50
2019-04-26T23:12:28.889Z,100057.48
2019-04-26T23:15:23.992Z,100058.03
2019-04-26T23:18:08.355Z,100056.22
2019-04-26T23:20:51.231Z,100054.63
2019-04-26T23:23:23.656Z,100052.90
2019-04-26T23:25:55.041Z,100054.44
2019-04-26T23:28:27.749Z,100052.75
2019-04-26T23:31:01.445Z,100050.48
2019-04-26T23:33:33.824Z,100050.56
2019-04-26T23:36:05.186Z,100047.48
2019-04-26T23:38:37.635Z,100048.94
2019-04-26T23:41:09.021Z,100044.35
2019-04-26T23:43:40.347Z,100048.67
2019-04-26T23:46:14.355Z,100052.63
2019-04-26T23:48:48.560Z,100048.38
2019-04-26T23:51:17.688Z,100040.17
2019-04-26T23:53:50.484Z,100030.98
2019-04-26T23:56:25.212Z,100022.80
2019-04-26T23:58:54.903Z,100016.91
